Time;durP1;ratioP1;P1;durP2;ratioP2;P2;SDS_P1;SDS_P2;PMS_P1;PMS_P2;Temp;Humidity;BMP_temperature;BMP_pressure;BME280_temperature;BME280_humidity;BME280_pressure;Samples;Min_cycle;Max_cycle;Signal;HPM_P1;HPM_P2
2022/02/10 00:06:44;;;;;;;5.10;2.00;;;8.40;99.90;;;;;;4148992;28;20258;-81
2022/02/10 00:14:08;;;;;;;4.00;2.20;;;8.40;99.90;;;;;;4109601;28;20744;-81
2022/02/10 00:16:35;;;;;;;3.83;2.20;;;8.40;99.90;;;;;;4151020;28;20884;-81
2022/02/10 00:21:18;;;;;;;3.53;2.20;;;8.40;99.90;;;;;;4069110;29;20458;-81
2022/02/10 00:24:03;;;;;;;4.03;2.03;;;8.40;99.90;;;;;;4115788;28;20235;-81
2022/02/10 00:35:39;;;;;;;3.33;2.50;;;8.40;99.90;;;;;;4147041;28;20512;-80
2022/02/10 00:37:56;;;;;;;4.43;2.30;;;8.40;99.90;;;;;;4150787;28;20463;-80
2022/02/10 00:40:10;;;;;;;3.73;2.20;;;8.50;99.90;;;;;;4147459;28;20458;-81
2022/02/10 00:42:12;;;;;;;6.33;2.70;;;8.50;99.90;;;;;;4144111;28;20837;-81
2022/02/10 00:44:13;;;;;;;3.87;2.30;;;8.40;99.90;;;;;;4149290;28;20489;-81
2022/02/10 00:46:17;;;;;;;4.67;2.20;;;8.30;99.90;;;;;;4149752;28;20473;-81
2022/02/10 00:48:21;;;;;;;4.37;2.30;;;8.40;99.90;;;;;;4150427;28;20465;-81
2022/02/10 00:50:25;;;;;;;4.90;2.77;;;8.40;99.90;;;;;;4151019;28;20523;-80
2022/02/10 00:52:30;;;;;;;4.47;2.20;;;8.30;99.90;;;;;;4142144;28;20478;-80
2022/02/10 00:54:36;;;;;;;4.60;2.43;;;8.40;99.90;;;;;;4147904;28;20521;-80
2022/02/10 00:56:37;;;;;;;3.03;2.40;;;8.30;99.90;;;;;;4149215;28;20490;-81
2022/02/10 00:58:42;;;;;;;3.83;2.50;;;8.30;99.90;;;;;;4148686;28;20470;-79
2022/02/10 01:12:31;;;;;;;4.53;2.80;;;8.30;99.90;;;;;;4137737;28;20458;-80
2022/02/10 01:30:51;;;;;;;3.87;2.13;;;8.20;99.90;;;;;;4146931;28;20500;-79
2022/02/10 01:32:56;;;;;;;3.67;2.20;;;8.20;99.90;;;;;;4147014;28;20638;-79
2022/02/10 01:35:00;;;;;;;5.83;2.50;;;8.20;99.90;;;;;;4147042;28;20481;-80
2022/02/10 01:37:02;;;;;;;4.53;2.30;;;8.20;99.90;;;;;;4147772;28;20939;-80
2022/02/10 01:39:05;;;;;;;5.17;2.60;;;8.10;99.90;;;;;;4147487;28;20485;-80
2022/02/10 01:41:46;;;;;;;4.27;2.20;;;8.20;99.90;;;;;;4148632;28;20548;-81
2022/02/10 01:58:11;;;;;;;2.80;1.93;;;8.20;99.90;;;;;;4115799;28;20465;-80
2022/02/10 02:04:52;;;;;;;4.73;2.43;;;8.20;99.90;;;;;;4141112;28;20457;-80
2022/02/10 02:06:57;;;;;;;4.53;2.40;;;8.20;99.90;;;;;;4138151;28;20444;-81
2022/02/10 02:09:01;;;;;;;3.63;1.93;;;8.10;99.90;;;;;;4149405;28;20540;-80
2022/02/10 02:11:04;;;;;;;4.00;2.17;;;8.10;99.90;;;;;;4148385;28;20494;-80
2022/02/10 02:13:06;;;;;;;5.03;2.33;;;8.10;99.90;;;;;;4142209;28;20502;-80
2022/02/10 02:15:08;;;;;;;3.47;2.10;;;8.10;99.90;;;;;;4145407;28;20486;-80
2022/02/10 02:17:10;;;;;;;3.83;2.47;;;8.10;99.90;;;;;;4151325;28;20460;-80
2022/02/10 02:19:12;;;;;;;4.03;2.40;;;8.10;99.90;;;;;;4152776;28;20998;-80
2022/02/10 02:21:18;;;;;;;5.10;2.30;;;8.10;99.90;;;;;;4153764;28;20554;-81
2022/02/10 02:23:23;;;;;;;2.97;2.10;;;8.10;99.90;;;;;;4154826;28;20513;-79
2022/02/10 02:25:25;;;;;;;2.80;2.00;;;8.10;99.90;;;;;;4155028;28;20874;-80
2022/02/10 02:27:27;;;;;;;4.37;2.20;;;8.10;99.90;;;;;;4155522;28;20474;-80
2022/02/10 02:29:33;;;;;;;5.70;2.20;;;8.10;99.90;;;;;;4156482;28;20475;-80
2022/02/10 02:31:41;;;;;;;4.10;2.27;;;8.10;99.90;;;;;;4157595;28;20538;-80
2022/02/10 02:39:02;;;;;;;4.93;2.20;;;8.10;99.90;;;;;;4133678;28;20449;-80
2022/02/10 03:06:42;;;;;;;4.80;2.20;;;8.10;99.90;;;;;;4136240;28;20446;-81
2022/02/10 03:08:48;;;;;;;5.43;2.77;;;8.10;99.90;;;;;;4151122;28;20879;-80
2022/02/10 03:13:13;;;;;;;7.30;2.60;;;8.10;99.90;;;;;;4151623;28;20826;-80
2022/02/10 03:15:23;;;;;;;6.07;2.40;;;8.10;99.90;;;;;;4154300;28;20471;-80
2022/02/10 03:20:00;;;;;;;3.70;2.50;;;8.20;99.90;;;;;;4144667;28;20510;-80
2022/02/10 04:06:51;;;;;;;4.20;2.40;;;7.90;99.90;;;;;;4189999;27;20618;-75
2022/02/10 04:09:23;;;;;;;4.17;2.73;;;7.80;99.90;;;;;;4175746;27;21418;-75
2022/02/10 04:13:52;;;;;;;5.43;2.47;;;7.80;99.90;;;;;;4174642;28;20468;-75
2022/02/10 04:16:06;;;;;;;5.67;2.57;;;7.80;99.90;;;;;;4171348;28;20457;-76
2022/02/10 04:20:49;;;;;;;5.47;2.87;;;7.80;99.90;;;;;;4174400;27;20511;-77
2022/02/10 04:23:05;;;;;;;4.57;2.40;;;7.80;99.90;;;;;;4158778;28;20502;-76
2022/02/10 04:25:28;;;;;;;5.30;3.47;;;7.80;99.90;;;;;;4167343;28;20483;-75
2022/02/10 04:27:53;;;;;;;4.77;2.90;;;7.70;99.90;;;;;;4213134;27;20456;-77
2022/02/10 04:30:17;;;;;;;6.37;2.83;;;7.70;99.90;;;;;;4157887;28;20473;-77
2022/02/10 04:32:35;;;;;;;3.63;2.20;;;7.70;99.90;;;;;;4169348;28;20473;-76
2022/02/10 04:45:18;;;;;;;4.17;2.93;;;7.50;99.90;;;;;;4183728;27;20479;-77
2022/02/10 04:56:44;;;;;;;6.67;3.30;;;7.40;99.90;;;;;;4160392;28;20455;-77
2022/02/10 04:58:57;;;;;;;5.17;3.33;;;7.40;99.90;;;;;;4165803;28;20945;-76
2022/02/10 05:01:16;;;;;;;3.50;2.80;;;7.40;99.90;;;;;;4163439;28;21005;-76
2022/02/10 05:15:23;;;;;;;7.53;3.63;;;7.20;99.90;;;;;;4166347;28;20444;-75
2022/02/10 05:20:16;;;;;;;7.30;4.10;;;7.10;99.90;;;;;;4206587;28;20509;-76
2022/02/10 05:31:24;;;;;;;6.97;3.70;;;7.00;99.90;;;;;;4153377;28;20522;-75
2022/02/10 05:34:30;;;;;;;5.97;3.60;;;6.90;99.90;;;;;;4197264;28;20568;-78
2022/02/10 05:36:36;;;;;;;6.07;3.50;;;6.90;99.90;;;;;;4195316;28;20482;-79
2022/02/10 05:38:44;;;;;;;7.93;4.20;;;6.90;99.90;;;;;;4155213;28;20857;-78
2022/02/10 05:43:41;;;;;;;6.53;4.00;;;6.60;99.90;;;;;;4154084;28;20483;-77
2022/02/10 05:45:49;;;;;;;7.03;4.07;;;6.80;99.90;;;;;;4154864;28;20497;-76
2022/02/10 05:48:10;;;;;;;7.80;3.80;;;6.70;99.90;;;;;;4155909;28;20956;-76
2022/02/10 05:50:59;;;;;;;7.70;3.97;;;6.70;99.90;;;;;;4152760;28;20465;-77
2022/02/10 05:53:31;;;;;;;10.40;4.63;;;6.70;99.90;;;;;;4160857;28;20910;-77
2022/02/10 05:55:43;;;;;;;8.97;4.20;;;6.60;99.90;;;;;;4158667;28;20523;-77
2022/02/10 05:57:51;;;;;;;9.03;4.67;;;6.60;99.90;;;;;;4155785;28;20470;-76
2022/02/10 06:02:56;;;;;;;8.93;4.67;;;6.90;99.90;;;;;;4157334;27;20471;-77
2022/02/10 06:49:39;;;;;;;11.57;5.67;;;6.10;99.90;;;;;;4183739;28;20977;-79
2022/02/10 06:51:47;;;;;;;10.83;5.93;;;6.00;99.90;;;;;;4167648;27;20484;-79
2022/02/10 06:54:00;;;;;;;10.20;6.33;;;6.00;99.90;;;;;;4176444;27;20497;-79
2022/02/10 07:08:06;;;;;;;13.00;6.17;;;5.90;99.90;;;;;;4146482;28;20847;-77
2022/02/10 07:13:00;;;;;;;11.43;6.07;;;5.90;99.90;;;;;;4177205;27;20461;-77
2022/02/10 07:15:29;;;;;;;12.40;5.87;;;5.90;99.90;;;;;;4178372;27;20886;-79
2022/02/10 07:48:22;;;;;;;11.93;6.03;;;5.70;99.90;;;;;;4176462;27;20467;-77
2022/02/10 07:50:57;;;;;;;13.67;6.60;;;5.80;99.90;;;;;;4172700;27;20461;-78
2022/02/10 07:57:53;;;;;;;11.93;6.00;;;5.80;99.90;;;;;;4166780;28;20775;-78
2022/02/10 08:00:18;;;;;;;13.87;6.40;;;5.80;99.90;;;;;;4180735;27;20460;-77
2022/02/10 08:56:02;;;;;;;10.93;5.23;;;6.10;99.90;;;;;;4165668;28;20458;-76
2022/02/10 09:00:53;;;;;;;13.17;5.70;;;6.20;99.90;;;;;;4180422;28;20510;-77
2022/02/10 09:05:39;;;;;;;10.00;5.57;;;6.30;99.90;;;;;;4155753;28;20530;-77
2022/02/10 09:11:02;;;;;;;10.13;4.83;;;6.40;99.90;;;;;;4255235;27;20998;-77
2022/02/10 09:25:59;;;;;;;9.13;4.40;;;6.90;99.90;;;;;;4242482;27;20944;-76
2022/02/10 09:55:57;;;;;;;7.03;4.07;;;7.60;99.90;;;;;;4223421;27;20495;-76
2022/02/10 09:58:15;;;;;;;7.73;4.40;;;7.70;99.90;;;;;;4235664;27;20467;-76
2022/02/10 10:00:27;;;;;;;8.33;4.07;;;7.80;99.90;;;;;;4247335;27;22310;-76
2022/02/10 10:02:34;;;;;;;8.57;4.40;;;7.90;99.90;;;;;;4246188;27;20832;-76
2022/02/10 10:04:40;;;;;;;6.40;3.73;;;8.00;99.90;;;;;;4248275;27;20883;-77
2022/02/10 10:06:54;;;;;;;8.50;4.50;;;8.00;99.90;;;;;;4240433;27;20554;-79
2022/02/10 10:09:16;;;;;;;9.40;4.03;;;8.00;99.90;;;;;;4239574;27;20964;-77
2022/02/10 10:14:05;;;;;;;7.80;4.07;;;8.10;99.90;;;;;;4239973;27;20505;-76
2022/02/10 10:18:59;;;;;;;6.67;3.83;;;8.30;99.90;;;;;;4230306;27;20475;-75
2022/02/10 10:23:36;;;;;;;7.97;4.03;;;8.40;99.90;;;;;;4226778;27;21025;-76
2022/02/10 10:50:04;;;;;;;7.80;4.00;;;9.00;99.90;;;;;;4228509;27;20253;-76
2022/02/10 10:52:21;;;;;;;10.40;4.03;;;9.10;99.90;;;;;;4230482;27;20273;-78
2022/02/10 10:54:30;;;;;;;6.30;3.50;;;9.30;99.90;;;;;;4231503;27;20336;-77
2022/02/10 10:56:37;;;;;;;7.60;3.83;;;9.70;99.90;;;;;;4229507;27;20779;-78
2022/02/10 10:58:45;;;;;;;9.37;3.53;;;9.20;99.90;;;;;;4236797;27;20210;-78
2022/02/10 11:03:36;;;;;;;7.40;3.77;;;9.20;99.90;;;;;;4238047;27;20580;-78
2022/02/10 11:03:44;;;;;;;6.83;3.50;;;9.30;99.90;;;;;;4235598;27;20290;-78
2022/02/10 11:23:49;;;;;;;8.10;4.00;;;10.30;99.90;;;;;;4226581;27;20230;-78
2022/02/10 11:37:37;;;;;;;7.93;3.90;;;10.80;99.90;;;;;;4227696;27;20262;-78
2022/02/10 11:40:11;;;;;;;8.30;3.70;;;10.70;99.90;;;;;;4229014;27;20203;-78
2022/02/10 14:11:02;;;;;;;14.53;7.50;;;8.10;99.90;;;;;;4230149;27;20484;-78
2022/02/10 14:13:10;;;;;;;13.73;7.60;;;8.10;99.90;;;;;;4225569;27;20549;-78
2022/02/10 14:15:24;;;;;;;15.17;7.10;;;8.10;99.90;;;;;;4230240;27;20456;-78
2022/02/10 14:17:32;;;;;;;14.90;8.00;;;8.10;99.90;;;;;;4231664;27;21082;-78
2022/02/10 14:19:39;;;;;;;16.40;8.07;;;8.10;99.90;;;;;;4234566;27;20553;-78
2022/02/10 14:21:59;;;;;;;18.57;8.53;;;8.10;99.90;;;;;;4234408;27;20466;-78
2022/02/10 14:26:33;;;;;;;14.23;8.30;;;8.00;99.90;;;;;;4232972;27;20535;-78
2022/02/10 14:28:35;;;;;;;17.37;8.33;;;8.00;99.90;;;;;;4230879;27;20453;-78
2022/02/10 14:30:38;;;;;;;20.40;8.90;;;7.90;99.90;;;;;;4233310;27;20492;-78
2022/02/10 14:32:43;;;;;;;19.03;8.27;;;7.90;99.90;;;;;;4231523;27;20511;-78
2022/02/10 14:34:47;;;;;;;23.83;9.43;;;7.90;99.90;;;;;;4229315;27;20551;-78
2022/02/10 14:36:49;;;;;;;17.63;8.47;;;7.90;99.90;;;;;;4229072;27;20513;-78
2022/02/10 14:38:58;;;;;;;23.73;9.57;;;7.90;99.90;;;;;;4233331;27;20958;-78
2022/02/10 14:41:28;;;;;;;19.80;8.83;;;7.90;99.90;;;;;;4227322;27;20449;-78
2022/02/10 15:12:15;;;;;;;20.93;9.60;;;7.80;99.90;;;;;;4226988;27;20441;-79
2022/02/10 15:21:37;;;;;;;25.20;9.60;;;7.70;99.90;;;;;;4180734;28;20459;-76
2022/02/10 15:33:35;;;;;;;21.00;10.47;;;7.70;99.90;;;;;;4230653;27;21015;-73
2022/02/10 15:52:26;;;;;;;22.87;9.43;;;7.60;99.90;;;;;;4216581;27;20648;-77
2022/02/10 15:55:00;;;;;;;18.97;9.40;;;7.60;99.90;;;;;;4225361;27;20934;-78
2022/02/10 16:11:21;;;;;;;15.40;8.50;;;7.60;99.90;;;;;;4224230;27;20559;-78
2022/02/10 16:18:05;;;;;;;19.30;9.23;;;7.50;99.90;;;;;;4226389;27;20450;-77
2022/02/10 16:20:08;;;;;;;20.57;8.87;;;7.60;99.90;;;;;;4227618;27;21243;-77
2022/02/10 16:22:22;;;;;;;18.20;9.70;;;7.50;99.90;;;;;;4226489;27;20488;-77
2022/02/10 16:24:30;;;;;;;15.93;8.77;;;7.40;99.90;;;;;;4228203;27;20496;-76
2022/02/10 16:26:42;;;;;;;17.83;8.87;;;7.40;99.90;;;;;;4224514;27;20478;-76
2022/02/10 16:28:45;;;;;;;21.57;9.33;;;7.40;99.90;;;;;;4226629;27;20898;-76
2022/02/10 16:30:46;;;;;;;16.60;8.90;;;7.40;99.90;;;;;;4225222;27;20524;-77
2022/02/10 16:32:48;;;;;;;17.77;9.80;;;7.40;99.90;;;;;;4228887;27;20470;-77
2022/02/10 16:34:50;;;;;;;18.90;9.23;;;7.40;99.90;;;;;;4224208;27;20504;-77
2022/02/10 16:36:53;;;;;;;24.20;9.73;;;7.40;99.90;;;;;;4226437;27;20765;-77
2022/02/10 16:38:58;;;;;;;17.77;9.43;;;7.40;99.90;;;;;;4226597;27;20466;-77
2022/02/10 16:41:00;;;;;;;18.17;9.70;;;7.40;99.90;;;;;;4228862;27;20508;-77
2022/02/10 16:43:03;;;;;;;19.57;9.33;;;7.40;99.90;;;;;;4227741;27;20481;-78
2022/02/10 16:45:05;;;;;;;20.93;9.80;;;7.40;99.90;;;;;;4224616;27;20731;-77
2022/02/10 16:47:10;;;;;;;21.53;9.77;;;7.40;99.90;;;;;;4230929;27;21505;-78
2022/02/10 16:49:13;;;;;;;19.10;9.47;;;7.40;99.90;;;;;;4232695;27;20469;-80
2022/02/10 16:51:15;;;;;;;19.23;9.33;;;7.40;99.90;;;;;;4231541;27;20559;-79
2022/02/10 16:53:21;;;;;;;18.30;9.83;;;7.40;99.90;;;;;;4230653;27;20484;-79
2022/02/10 16:55:37;;;;;;;21.23;10.13;;;7.30;99.90;;;;;;4227322;27;20526;-79
2022/02/10 16:57:56;;;;;;;20.00;10.33;;;7.30;99.90;;;;;;4230223;27;20861;-78
2022/02/10 17:00:09;;;;;;;21.63;10.33;;;7.30;99.90;;;;;;4224621;28;20568;-77
2022/02/10 17:02:26;;;;;;;21.10;10.43;;;7.30;99.90;;;;;;4225242;27;20473;-77
2022/02/10 17:05:03;;;;;;;23.30;10.37;;;7.20;99.90;;;;;;4222675;27;21226;-78
2022/02/10 17:14:36;;;;;;;19.60;10.60;;;7.00;99.90;;;;;;4213349;28;20471;-79
2022/02/10 17:19:09;;;;;;;21.27;11.43;;;6.90;99.90;;;;;;4227519;28;20448;-78
2022/02/10 17:21:33;;;;;;;19.43;10.60;;;6.90;99.90;;;;;;4230446;28;20476;-78
2022/02/10 17:26:04;;;;;;;21.20;11.63;;;6.70;99.90;;;;;;4226511;28;20497;-78
2022/02/10 17:28:09;;;;;;;21.50;11.43;;;6.70;99.90;;;;;;4225894;28;20534;-78
2022/02/10 17:32:48;;;;;;;25.60;13.30;;;6.60;99.90;;;;;;4229897;27;20893;-79
2022/02/10 17:35:15;;;;;;;26.53;13.00;;;6.50;99.90;;;;;;4234109;27;20448;-78
2022/02/10 17:37:27;;;;;;;21.90;12.70;;;6.50;99.90;;;;;;4230328;27;20885;-78
2022/02/10 17:42:12;;;;;;;28.53;14.40;;;6.40;99.90;;;;;;4230835;27;20561;-78
2022/02/10 17:44:32;;;;;;;26.83;13.07;;;6.40;99.90;;;;;;4231178;27;20483;-78
2022/02/10 17:46:42;;;;;;;24.83;12.77;;;6.40;99.90;;;;;;4231337;27;20472;-78
2022/02/10 17:59:48;;;;;;;23.30;13.40;;;6.40;99.90;;;;;;4141796;28;20510;-78
2022/02/10 18:01:50;;;;;;;27.53;14.00;;;6.40;99.90;;;;;;4142841;28;20471;-79
2022/02/10 18:03:52;;;;;;;24.60;13.53;;;6.40;99.90;;;;;;4142642;28;20490;-77
2022/02/10 18:06:16;;;;;;;25.43;12.90;;;6.40;99.90;;;;;;4143825;28;20475;-79
2022/02/10 18:08:21;;;;;;;23.73;11.53;;;6.40;99.90;;;;;;4143192;28;20527;-79
2022/02/10 18:11:05;;;;;;;23.07;12.73;;;6.30;99.90;;;;;;4142193;28;20503;-78
2022/02/10 18:15:29;;;;;;;25.50;12.63;;;6.30;99.90;;;;;;4136947;28;20521;-79
2022/02/10 18:17:35;;;;;;;21.70;12.37;;;6.30;99.90;;;;;;4143396;28;20474;-79
2022/02/10 18:19:42;;;;;;;24.03;12.10;;;6.30;99.90;;;;;;4144782;28;20506;-79
2022/02/10 18:22:18;;;;;;;24.47;13.07;;;6.30;99.90;;;;;;4143525;28;20526;-80
2022/02/10 18:24:42;;;;;;;22.77;11.50;;;6.30;99.90;;;;;;4142064;28;20492;-78
2022/02/10 18:26:59;;;;;;;26.97;13.00;;;6.30;99.90;;;;;;4142746;28;20455;-80
2022/02/10 18:29:05;;;;;;;22.73;11.63;;;6.30;99.90;;;;;;4146428;28;20469;-78
2022/02/10 18:33:53;;;;;;;20.43;11.57;;;6.40;99.90;;;;;;4145372;28;20538;-79
2022/02/10 19:01:36;;;;;;;25.03;13.50;;;6.30;99.90;;;;;;4140169;28;20487;-79
2022/02/10 19:09:03;;;;;;;24.90;12.93;;;6.30;99.90;;;;;;4123766;28;20479;-79
2022/02/10 19:11:08;;;;;;;24.70;13.03;;;6.30;99.90;;;;;;4145204;28;20574;-80
2022/02/10 19:13:10;;;;;;;25.30;13.07;;;6.30;99.90;;;;;;4143795;28;20514;-80
2022/02/10 19:15:20;;;;;;;25.57;13.23;;;6.40;99.90;;;;;;4144186;28;20461;-80
2022/02/10 19:17:23;;;;;;;26.90;13.47;;;6.30;99.90;;;;;;4146522;28;20460;-80
2022/02/10 19:19:26;;;;;;;23.20;13.50;;;6.30;99.90;;;;;;4144130;28;20951;-80
2022/02/10 19:21:27;;;;;;;26.43;13.60;;;6.30;99.90;;;;;;4146433;28;20473;-80
2022/02/10 19:23:32;;;;;;;25.17;13.50;;;6.30;99.90;;;;;;4146358;28;20487;-79
2022/02/10 19:25:36;;;;;;;27.93;14.17;;;6.30;99.90;;;;;;4143283;28;20465;-79
2022/02/10 19:27:40;;;;;;;26.07;14.07;;;6.30;99.90;;;;;;4148149;28;20534;-80
2022/02/10 19:29:42;;;;;;;26.87;13.53;;;6.30;99.90;;;;;;4147004;28;20502;-81
2022/02/10 19:31:45;;;;;;;26.40;13.50;;;6.30;99.90;;;;;;4145796;28;20497;-81
2022/02/10 19:33:47;;;;;;;24.27;12.83;;;6.30;99.90;;;;;;4145631;28;20508;-81
2022/02/10 19:35:52;;;;;;;24.43;12.83;;;6.40;99.90;;;;;;4144148;28;20469;-81
2022/02/10 19:37:58;;;;;;;25.73;13.97;;;7.20;99.90;;;;;;4147004;28;21151;-81
2022/02/10 19:40:02;;;;;;;24.33;13.47;;;6.30;99.90;;;;;;4146079;28;20890;-81
2022/02/10 19:42:05;;;;;;;23.17;12.87;;;6.30;99.90;;;;;;4147181;28;20861;-81
2022/02/10 19:44:07;;;;;;;23.90;12.83;;;6.30;99.90;;;;;;4146706;28;21019;-81
2022/02/10 19:46:11;;;;;;;25.20;13.73;;;6.30;99.90;;;;;;4145990;28;20468;-80
2022/02/10 19:48:13;;;;;;;26.40;13.70;;;6.30;99.90;;;;;;4147428;28;20476;-81
2022/02/10 19:50:21;;;;;;;25.03;13.17;;;6.30;99.90;;;;;;4148065;28;20473;-81
2022/02/10 19:52:24;;;;;;;24.77;12.80;;;6.30;99.90;;;;;;4149198;28;20456;-81
2022/02/10 19:54:29;;;;;;;26.53;14.03;;;6.30;99.90;;;;;;4148380;28;20488;-81
2022/02/10 19:56:32;;;;;;;23.47;13.03;;;6.30;99.90;;;;;;4146066;28;20477;-81
2022/02/10 19:58:34;;;;;;;23.57;13.67;;;6.30;99.90;;;;;;4149543;28;21204;-80
2022/02/10 20:00:41;;;;;;;23.40;13.37;;;7.00;99.90;;;;;;4145278;28;20849;-81
2022/02/10 20:02:43;;;;;;;23.83;13.20;;;6.20;99.90;;;;;;4147757;28;20465;-80
2022/02/10 20:04:44;;;;;;;28.43;14.27;;;6.30;99.90;;;;;;4145956;28;20555;-81
2022/02/10 20:06:46;;;;;;;30.17;14.17;;;6.30;99.90;;;;;;4146411;28;20535;-80
2022/02/10 20:28:26;;;;;;;26.93;14.07;;;6.20;99.90;;;;;;3970837;29;20451;-81
2022/02/10 20:31:18;;;;;;;22.93;13.33;;;6.20;99.90;;;;;;4088697;28;20543;-81
2022/02/10 20:35:50;;;;;;;25.27;13.63;;;6.30;99.90;;;;;;4146297;28;20770;-80
2022/02/10 20:38:01;;;;;;;25.10;13.70;;;6.20;99.90;;;;;;4146160;28;20472;-81
2022/02/10 20:52:09;;;;;;;22.30;12.83;;;6.20;99.90;;;;;;4090689;29;20500;-81
2022/02/10 20:54:34;;;;;;;24.83;12.03;;;6.20;99.90;;;;;;4146170;28;20491;-81
2022/02/10 20:57:10;;;;;;;;;;;;;;;;;;;;;
2022/02/10 20:59:27;;;;;;;22.53;12.13;;;6.20;99.90;;;;;;4132103;28;20475;-81
2022/02/10 21:01:28;;;;;;;25.53;12.87;;;6.10;99.90;;;;;;4146437;28;20479;-81
2022/02/10 21:03:35;;;;;;;22.03;12.40;;;6.10;99.90;;;;;;4145241;28;20504;-80
2022/02/10 21:05:40;;;;;;;23.30;12.33;;;6.10;99.90;;;;;;4145829;28;20545;-81
2022/02/10 21:07:51;;;;;;;25.33;13.50;;;6.10;99.90;;;;;;4144947;28;20483;-81
2022/02/10 21:09:57;;;;;;;22.07;11.97;;;6.10;99.90;;;;;;4189248;23;20501;-78
2022/02/10 21:12:02;;;;;;;23.03;11.67;;;6.20;99.90;;;;;;4173971;28;21440;-78
2022/02/10 21:14:07;;;;;;;20.73;11.47;;;6.10;99.90;;;;;;4171349;28;20959;-78
2022/02/10 21:16:09;;;;;;;24.87;12.57;;;6.10;99.90;;;;;;4171940;28;20960;-78
2022/02/10 21:18:16;;;;;;;20.70;11.70;;;6.10;99.90;;;;;;4173226;28;20561;-78
2022/02/10 21:20:20;;;;;;;21.93;11.50;;;6.60;99.90;;;;;;4169255;28;20868;-78
2022/02/10 21:22:21;;;;;;;20.30;11.40;;;6.20;99.90;;;;;;4171608;28;20462;-78
2022/02/10 21:24:29;;;;;;;17.30;9.57;;;6.10;99.90;;;;;;4169781;28;20908;-78
2022/02/10 21:26:40;;;;;;;19.63;10.73;;;6.00;99.90;;;;;;4171054;28;21080;-77
2022/02/10 21:28:43;;;;;;;17.73;10.47;;;6.00;99.90;;;;;;4171715;28;20485;-77
2022/02/10 21:30:47;;;;;;;17.33;9.70;;;6.00;99.90;;;;;;4170466;28;20465;-77
2022/02/10 21:32:51;;;;;;;19.17;10.33;;;6.00;99.90;;;;;;4169971;28;20487;-77
2022/02/10 21:35:09;;;;;;;16.43;9.53;;;6.00;99.90;;;;;;4171214;28;20462;-77
2022/02/10 21:37:13;;;;;;;16.30;8.40;;;6.10;99.90;;;;;;4171632;28;20456;-78
2022/02/10 21:39:27;;;;;;;17.27;8.27;;;6.00;99.90;;;;;;4171595;28;20482;-78
2022/02/10 21:42:24;;;;;;;16.53;8.57;;;5.90;99.90;;;;;;4171857;28;20566;-78
2022/02/10 22:01:07;;;;;;;11.97;5.80;;;5.70;99.90;;;;;;4172705;28;20445;-77
2022/02/10 22:03:29;;;;;;;11.20;6.03;;;5.70;99.90;;;;;;4176616;28;20448;-77
2022/02/10 22:10:53;;;;;;;10.20;5.10;;;5.70;99.90;;;;;;4178262;28;20507;-78
2022/02/10 22:20:31;;;;;;;8.70;5.00;;;5.70;99.90;;;;;;4152437;28;20809;-78
2022/02/10 22:22:36;;;;;;;9.97;5.30;;;5.70;99.90;;;;;;4178554;28;20986;-77
2022/02/10 22:24:40;;;;;;;8.10;4.33;;;5.70;99.90;;;;;;4177786;28;20512;-77
2022/02/10 22:26:43;;;;;;;8.90;4.80;;;5.70;99.90;;;;;;4181650;28;20456;-78
2022/02/10 22:28:51;;;;;;;8.50;4.47;;;5.70;99.90;;;;;;4181220;28;20498;-78
2022/02/10 22:31:06;;;;;;;7.60;4.47;;;5.70;99.90;;;;;;4178824;28;20602;-77
2022/02/10 22:33:23;;;;;;;8.00;4.00;;;5.70;99.90;;;;;;4181397;28;20449;-78
2022/02/10 22:35:32;;;;;;;7.57;4.07;;;5.70;99.90;;;;;;4180667;28;20858;-77
2022/02/10 22:37:36;;;;;;;8.27;4.23;;;5.70;99.90;;;;;;4181873;28;20802;-77
2022/02/10 22:39:46;;;;;;;5.33;3.70;;;5.70;99.90;;;;;;4181220;28;20885;-78
2022/02/10 22:41:48;;;;;;;6.97;3.90;;;5.50;99.90;;;;;;4181532;28;20946;-78
2022/02/10 22:43:57;;;;;;;6.90;3.93;;;5.60;99.90;;;;;;4180471;28;20457;-78
2022/02/10 22:46:02;;;;;;;8.43;3.80;;;5.60;99.90;;;;;;4178855;28;20464;-77
2022/02/10 22:48:04;;;;;;;5.23;3.23;;;5.60;99.90;;;;;;4178765;28;20517;-77
2022/02/10 22:50:11;;;;;;;5.80;3.40;;;5.60;99.90;;;;;;4177540;28;21076;-77
2022/02/10 22:52:13;;;;;;;8.27;3.40;;;5.60;99.90;;;;;;4174576;28;20510;-78
2022/02/10 22:54:20;;;;;;;5.47;3.13;;;5.60;99.90;;;;;;4180120;28;20943;-77
2022/02/10 22:56:28;;;;;;;6.73;3.27;;;5.60;99.90;;;;;;4181195;28;20472;-78
2022/02/10 22:58:31;;;;;;;7.23;3.27;;;5.60;99.90;;;;;;4176876;28;20481;-77
2022/02/10 23:00:34;;;;;;;5.50;3.23;;;5.60;99.90;;;;;;4177970;28;20478;-79
2022/02/10 23:02:42;;;;;;;6.77;3.77;;;5.60;99.90;;;;;;4178927;28;20486;-78
2022/02/10 23:07:07;;;;;;;8.80;3.87;;;5.60;99.90;;;;;;4171490;28;20470;-77
2022/02/10 23:09:33;;;;;;;7.87;3.43;;;5.60;99.90;;;;;;4178203;28;20489;-77
2022/02/10 23:11:37;;;;;;;6.60;3.27;;;5.50;99.90;;;;;;4179319;28;20491;-77
2022/02/10 23:13:45;;;;;;;6.60;3.30;;;5.50;99.90;;;;;;4181190;28;20519;-78
2022/02/10 23:15:46;;;;;;;7.10;3.33;;;5.50;99.90;;;;;;4179979;28;20465;-78
2022/02/10 23:17:54;;;;;;;5.97;3.13;;;5.50;99.90;;;;;;4180369;28;20467;-79
2022/02/10 23:22:14;;;;;;;8.13;3.43;;;5.50;99.90;;;;;;4170967;28;20463;-79
2022/02/10 23:24:16;;;;;;;5.63;3.40;;;5.40;99.90;;;;;;4175349;28;20959;-79
2022/02/10 23:26:29;;;;;;;6.73;3.73;;;5.40;99.90;;;;;;4177089;28;20443;-79
2022/02/10 23:28:33;;;;;;;6.97;3.77;;;5.40;99.90;;;;;;4180640;28;20464;-79
2022/02/10 23:30:36;;;;;;;6.83;3.90;;;5.40;99.90;;;;;;4174193;28;20451;-76
2022/02/10 23:32:37;;;;;;;8.23;3.67;;;5.30;99.90;;;;;;4175086;28;20556;-77
2022/02/10 23:34:40;;;;;;;6.73;3.67;;;5.30;99.90;;;;;;4178122;28;20833;-76
2022/02/10 23:36:47;;;;;;;6.57;3.80;;;5.30;99.90;;;;;;4180100;28;20458;-79
2022/02/10 23:38:57;;;;;;;5.67;3.20;;;5.30;99.90;;;;;;4180349;28;20472;-80
2022/02/10 23:43:20;;;;;;;6.70;3.47;;;5.30;99.90;;;;;;4174096;28;20867;-77
2022/02/10 23:45:26;;;;;;;5.70;3.80;;;5.20;99.90;;;;;;4178364;28;20808;-77
2022/02/10 23:47:32;;;;;;;5.63;3.20;;;5.30;99.90;;;;;;4179749;28;20543;-77
2022/02/10 23:49:36;;;;;;;8.30;3.57;;;5.20;99.90;;;;;;4180368;28;21009;-78
2022/02/10 23:51:46;;;;;;;6.67;3.60;;;5.20;99.90;;;;;;4178168;28;20501;-78
2022/02/10 23:53:48;;;;;;;7.10;3.57;;;5.20;99.90;;;;;;4179001;28;20495;-80
2022/02/10 23:55:50;;;;;;;7.00;3.63;;;5.20;99.90;;;;;;4178743;28;20457;-80
2022/02/10 23:58:00;;;;;;;7.37;3.37;;;5.10;99.90;;;;;;4181040;28;20453;-80
